Maldives Meteorological Service

TAFS

Station TAF
VRMM
VRMM 282300Z 2900/3006 25006KT 9999 FEW018 TEMPO 2902/2908 7000 -SHRA FEW018CB=
VRMH
VRMH 282300Z 2900/3006 30005KT 9999 FEW018 TEMPO 2903/2909 FEW018CB=
VRMK
VRMK 282300Z 2900/2924 20004KT 9999 FEW018TCU TEMPO 2900/2906 4000 TSRA SCT017CB=
VRMT
VRMT 282300Z 2900/2924 16004KT 9999 FEW018TCU TEMPO 2901/2907 5000 -SHRA FEW017CB=
VRMG
VRMG 282300Z 2900/3006 19005KT 9999 FEW018TCU TEMPO 2900/2906 5000 -TSRA FEW017CB=